Time;durP1;ratioP1;P1;durP2;ratioP2;P2;SDS_P1;SDS_P2;PMS_P1;PMS_P2;Temp;Humidity;BMP_temperature;BMP_pressure;BME280_temperature;BME280_humidity;BME280_pressure;Samples;Min_cycle;Max_cycle;Signal;HPM_P1;HPM_P2
2023/04/15 00:00:36;;;;;;;;;14.00;10.25;;;;;;;;5039515;28;61795;-84
2023/04/15 00:03:01;;;;;;;;;16.75;12.00;;;;;;;;5019735;28;63797;-84
2023/04/15 00:05:28;;;;;;;;;9.75;9.50;;;;;;;;5043733;28;61919;-84
2023/04/15 00:07:53;;;;;;;;;11.50;11.25;;;;;;;;5026667;28;61907;-83
2023/04/15 00:10:19;;;;;;;;;11.00;10.00;;;;;;;;5024113;28;61930;-84
2023/04/15 00:12:44;;;;;;;;;17.00;10.25;;;;;;;;5022572;28;62971;-84
2023/04/15 00:15:11;;;;;;;;;19.00;10.75;;;;;;;;5005627;28;61942;-84
2023/04/15 00:17:37;;;;;;;;;15.25;11.25;;;;;;;;5005704;28;62208;-84
2023/04/15 00:20:05;;;;;;;;;14.00;11.50;;;;;;;;5023482;28;61744;-84
2023/04/15 00:22:31;;;;;;;;;17.00;11.75;;;;;;;;5023259;28;61832;-83
2023/04/15 00:24:56;;;;;;;;;11.50;11.25;;;;;;;;5022985;28;61812;-83
2023/04/15 00:27:21;;;;;;;;;7.50;7.50;;;;;;;;5023610;28;61939;-84
2023/04/15 00:29:47;;;;;;;;;15.25;13.50;;;;;;;;5024262;28;61776;-84
2023/04/15 00:32:12;;;;;;;;;16.75;12.75;;;;;;;;5022857;28;63010;-84
2023/04/15 00:34:37;;;;;;;;;14.75;11.50;;;;;;;;5023325;28;61769;-84
2023/04/15 00:37:02;;;;;;;;;15.25;10.00;;;;;;;;5023528;28;61843;-84
2023/04/15 00:39:28;;;;;;;;;13.75;12.75;;;;;;;;5023253;28;62030;-84
2023/04/15 00:41:54;;;;;;;;;16.75;11.75;;;;;;;;5022807;28;61836;-84
2023/04/15 00:44:20;;;;;;;;;12.25;12.00;;;;;;;;5023475;28;61982;-84
2023/04/15 00:46:45;;;;;;;;;13.25;8.75;;;;;;;;5023114;28;62027;-83
2023/04/15 00:49:11;;;;;;;;;11.75;9.50;;;;;;;;5004843;28;62164;-84
2023/04/15 00:51:37;;;;;;;;;11.75;10.50;;;;;;;;5023007;28;61693;-84
2023/04/15 00:54:03;;;;;;;;;15.75;12.50;;;;;;;;5022799;28;61823;-82
2023/04/15 00:56:28;;;;;;;;;14.75;11.75;;;;;;;;5023698;28;61926;-82
2023/04/15 00:58:54;;;;;;;;;14.50;11.00;;;;;;;;5023322;28;61729;-82
2023/04/15 01:01:20;;;;;;;;;11.00;11.00;;;;;;;;5004450;28;63912;-82
2023/04/15 01:03:45;;;;;;;;;14.50;12.00;;;;;;;;5033832;28;61920;-82
2023/04/15 01:06:10;;;;;;;;;11.75;10.00;;;;;;;;5013570;28;61778;-82
2023/04/15 01:08:36;;;;;;;;;14.75;12.00;;;;;;;;5023109;28;61969;-81
2023/04/15 01:11:02;;;;;;;;;10.00;9.00;;;;;;;;5022450;28;62584;-82
2023/04/15 01:13:28;;;;;;;;;16.50;13.25;;;;;;;;5022907;28;61847;-82
2023/04/15 01:15:55;;;;;;;;;15.75;12.00;;;;;;;;5023036;28;61721;-82
2023/04/15 01:18:21;;;;;;;;;10.50;10.50;;;;;;;;5017681;28;61752;-82
2023/04/15 01:20:46;;;;;;;;;10.25;8.25;;;;;;;;5004570;28;64210;-81
2023/04/15 01:23:12;;;;;;;;;14.25;10.50;;;;;;;;5022682;28;61770;-82
2023/04/15 01:25:37;;;;;;;;;13.00;10.50;;;;;;;;5023250;28;61756;-82
2023/04/15 01:28:03;;;;;;;;;12.50;10.75;;;;;;;;5005246;28;61738;-82
2023/04/15 01:30:32;;;;;;;;;18.00;13.75;;;;;;;;5021941;28;61865;-82
2023/04/15 01:32:57;;;;;;;;;13.50;11.25;;;;;;;;5022761;28;61947;-82
2023/04/15 01:35:23;;;;;;;;;10.75;8.50;;;;;;;;5022552;28;62304;-82
2023/04/15 01:37:48;;;;;;;;;11.50;10.50;;;;;;;;5022953;28;62147;-82
2023/04/15 01:40:14;;;;;;;;;13.00;9.75;;;;;;;;5022228;28;61890;-82
2023/04/15 01:42:39;;;;;;;;;11.75;10.75;;;;;;;;5022509;28;61772;-81
2023/04/15 01:45:06;;;;;;;;;9.25;8.25;;;;;;;;4996127;28;62275;-82
2023/04/15 01:47:31;;;;;;;;;10.75;9.25;;;;;;;;5002837;28;62104;-82
2023/04/15 01:49:56;;;;;;;;;15.25;10.75;;;;;;;;5001849;28;61900;-82
2023/04/15 01:52:21;;;;;;;;;14.00;11.25;;;;;;;;4984737;28;62022;-82
2023/04/15 01:54:46;;;;;;;;;13.25;11.50;;;;;;;;5002476;28;61818;-82
2023/04/15 01:57:12;;;;;;;;;12.00;10.25;;;;;;;;5020372;28;62358;-82
2023/04/15 01:59:37;;;;;;;;;19.00;11.25;;;;;;;;5021571;28;61791;-82
2023/04/15 02:02:03;;;;;;;;;13.00;12.25;;;;;;;;5022230;28;61748;-82
2023/04/15 02:04:28;;;;;;;;;11.50;9.00;;;;;;;;5020377;28;62104;-82
2023/04/15 02:06:53;;;;;;;;;14.00;12.25;;;;;;;;5042386;28;61772;-82
2023/04/15 02:09:18;;;;;;;;;15.50;12.75;;;;;;;;5041664;28;62941;-82
2023/04/15 02:11:44;;;;;;;;;12.00;10.50;;;;;;;;5024163;28;61805;-82
2023/04/15 02:14:09;;;;;;;;;16.75;12.50;;;;;;;;5042279;28;61872;-82
2023/04/15 02:16:35;;;;;;;;;18.50;13.00;;;;;;;;5039158;28;61649;-82
2023/04/15 02:19:00;;;;;;;;;18.25;16.50;;;;;;;;5021341;28;62230;-81
2023/04/15 02:21:26;;;;;;;;;16.50;14.50;;;;;;;;5021660;28;61676;-82
2023/04/15 02:23:52;;;;;;;;;19.00;17.00;;;;;;;;5022250;28;61838;-82
2023/04/15 02:26:17;;;;;;;;;17.00;16.00;;;;;;;;5022450;28;61716;-81
2023/04/15 02:28:43;;;;;;;;;23.00;18.50;;;;;;;;5026495;28;61835;-82
2023/04/15 02:31:08;;;;;;;;;24.75;17.75;;;;;;;;5024330;28;62117;-82
2023/04/15 02:33:34;;;;;;;;;16.50;16.50;;;;;;;;5023079;28;63028;-81
2023/04/15 02:35:59;;;;;;;;;25.50;16.50;;;;;;;;5041728;28;61727;-82
2023/04/15 02:38:24;;;;;;;;;22.50;16.25;;;;;;;;5040960;28;62812;-82
2023/04/15 02:40:49;;;;;;;;;27.75;18.75;;;;;;;;5041294;28;61773;-82
2023/04/15 02:43:16;;;;;;;;;22.25;19.75;;;;;;;;5041932;28;61751;-81
2023/04/15 02:45:42;;;;;;;;;20.75;19.50;;;;;;;;5040774;28;61771;-81
2023/04/15 02:48:07;;;;;;;;;29.00;20.75;;;;;;;;5022799;28;63464;-81
2023/04/15 02:50:32;;;;;;;;;28.50;18.75;;;;;;;;5040567;28;61696;-81
2023/04/15 02:52:59;;;;;;;;;22.00;18.00;;;;;;;;5042483;28;61893;-81
2023/04/15 02:55:25;;;;;;;;;26.00;18.00;;;;;;;;5023432;28;61820;-81
2023/04/15 02:57:50;;;;;;;;;20.00;16.75;;;;;;;;5040239;28;61940;-81
2023/04/15 03:00:16;;;;;;;;;22.00;19.50;;;;;;;;5041453;28;61729;-82
2023/04/15 03:02:41;;;;;;;;;23.00;21.25;;;;;;;;5025121;28;61900;-81
2023/04/15 03:05:10;;;;;;;;;18.50;17.00;;;;;;;;5061379;28;61803;-82
2023/04/15 03:07:35;;;;;;;;;19.25;13.75;;;;;;;;5061041;28;62479;-81
2023/04/15 03:10:01;;;;;;;;;18.75;16.50;;;;;;;;5061480;28;61712;-82
2023/04/15 03:12:27;;;;;;;;;21.75;19.25;;;;;;;;5043407;28;61873;-81
2023/04/15 03:14:52;;;;;;;;;16.75;11.75;;;;;;;;5060988;28;62011;-81
2023/04/15 03:17:17;;;;;;;;;17.00;15.00;;;;;;;;5032183;28;63889;-81
2023/04/15 03:19:43;;;;;;;;;12.00;10.00;;;;;;;;5036901;28;61889;-81
2023/04/15 03:22:08;;;;;;;;;5.50;2.25;;;;;;;;5040964;28;61999;-82
2023/04/15 03:24:33;;;;;;;;;10.25;8.00;;;;;;;;5022875;28;61765;-82
2023/04/15 03:26:58;;;;;;;;;8.75;8.75;;;;;;;;5040247;28;62272;-82
2023/04/15 03:29:24;;;;;;;;;3.50;2.75;;;;;;;;5042955;28;62198;-81
2023/04/15 03:31:51;;;;;;;;;7.00;7.00;;;;;;;;5026661;28;61982;-82
2023/04/15 03:34:16;;;;;;;;;4.75;3.25;;;;;;;;5043831;28;61942;-82
2023/04/15 03:36:41;;;;;;;;;12.25;5.50;;;;;;;;5043774;28;61971;-82
2023/04/15 03:39:06;;;;;;;;;4.50;4.00;;;;;;;;5044123;28;62089;-82
2023/04/15 03:41:32;;;;;;;;;3.75;3.00;;;;;;;;5044482;28;61811;-82
2023/04/15 03:43:57;;;;;;;;;5.00;3.50;;;;;;;;5044364;28;62127;-82
2023/04/15 03:46:22;;;;;;;;;3.00;3.00;;;;;;;;5043112;28;61815;-82
2023/04/15 03:48:48;;;;;;;;;3.00;3.00;;;;;;;;5043634;28;61905;-83
2023/04/15 03:51:13;;;;;;;;;3.50;3.50;;;;;;;;5026158;28;61808;-82
2023/04/15 03:53:38;;;;;;;;;2.50;2.00;;;;;;;;5044151;28;61901;-82
2023/04/15 03:56:04;;;;;;;;;6.00;4.00;;;;;;;;5043224;28;61859;-82
2023/04/15 03:58:29;;;;;;;;;3.25;2.25;;;;;;;;5043911;28;61836;-82
2023/04/15 04:00:55;;;;;;;;;2.25;2.00;;;;;;;;5044076;28;61655;-82
2023/04/15 04:03:20;;;;;;;;;3.00;3.00;;;;;;;;5041320;28;62013;-81
2023/04/15 04:05:45;;;;;;;;;8.00;2.25;;;;;;;;5042568;28;61806;-82
2023/04/15 04:08:12;;;;;;;;;3.00;3.00;;;;;;;;5025721;28;61757;-81
2023/04/15 04:10:38;;;;;;;;;3.00;3.00;;;;;;;;5044160;28;61745;-82
2023/04/15 04:13:03;;;;;;;;;3.00;2.00;;;;;;;;5044024;28;61994;-82
2023/04/15 04:15:28;;;;;;;;;1.00;1.00;;;;;;;;5042753;28;61608;-82
2023/04/15 04:17:53;;;;;;;;;2.00;2.00;;;;;;;;5025110;28;61796;-82
2023/04/15 04:20:18;;;;;;;;;2.50;2.00;;;;;;;;5042749;28;61687;-82
2023/04/15 04:22:44;;;;;;;;;2.00;1.00;;;;;;;;5026152;28;62041;-82
2023/04/15 04:25:10;;;;;;;;;2.50;1.00;;;;;;;;5042146;28;62529;-82
2023/04/15 04:27:35;;;;;;;;;0.00;0.00;;;;;;;;5025702;28;61842;-81
2023/04/15 04:30:00;;;;;;;;;0.75;0.75;;;;;;;;5043210;28;61692;-82
2023/04/15 04:32:26;;;;;;;;;0.00;0.00;;;;;;;;5042994;28;62125;-82
2023/04/15 04:34:51;;;;;;;;;0.00;0.00;;;;;;;;5014240;28;63599;-81
2023/04/15 04:37:16;;;;;;;;;1.00;1.00;;;;;;;;5005643;28;61721;-81
2023/04/15 04:39:42;;;;;;;;;0.00;0.00;;;;;;;;5019144;28;62728;-82
2023/04/15 04:42:07;;;;;;;;;0.00;0.00;;;;;;;;5034454;28;62084;-81
2023/04/15 04:44:32;;;;;;;;;0.00;0.00;;;;;;;;5024241;28;63740;-81
2023/04/15 04:46:58;;;;;;;;;1.00;0.00;;;;;;;;5043340;28;61947;-82
2023/04/15 04:49:23;;;;;;;;;0.00;0.00;;;;;;;;5024665;28;61975;-82
2023/04/15 04:51:48;;;;;;;;;0.00;0.00;;;;;;;;5043644;28;62003;-81
2023/04/15 04:54:13;;;;;;;;;0.50;0.00;;;;;;;;5042757;28;61991;-82
2023/04/15 04:56:39;;;;;;;;;0.00;0.00;;;;;;;;5024936;28;62077;-81
2023/04/15 04:59:04;;;;;;;;;0.00;0.00;;;;;;;;5043189;28;61970;-82
2023/04/15 05:01:29;;;;;;;;;1.00;0.00;;;;;;;;5042652;28;62060;-83
2023/04/15 05:03:55;;;;;;;;;1.00;0.00;;;;;;;;5039954;28;61791;-83
2023/04/15 05:06:20;;;;;;;;;0.00;0.00;;;;;;;;5043144;28;61802;-82
2023/04/15 05:08:46;;;;;;;;;0.00;0.00;;;;;;;;5044840;28;61922;-82
2023/04/15 05:11:12;;;;;;;;;0.00;0.00;;;;;;;;5043564;28;62085;-82
2023/04/15 05:13:37;;;;;;;;;1.00;0.00;;;;;;;;5041248;28;61866;-82
2023/04/15 05:16:03;;;;;;;;;0.00;0.00;;;;;;;;5041792;28;61907;-82
2023/04/15 05:18:29;;;;;;;;;0.00;0.00;;;;;;;;5042113;28;61789;-82
2023/04/15 05:20:54;;;;;;;;;1.00;1.00;;;;;;;;5043047;28;61660;-82
2023/04/15 05:23:19;;;;;;;;;0.00;0.00;;;;;;;;5024073;28;64825;-82
2023/04/15 05:25:45;;;;;;;;;0.00;0.00;;;;;;;;5007348;28;61757;-81
2023/04/15 05:28:10;;;;;;;;;3.50;1.00;;;;;;;;5022782;28;62104;-82
2023/04/15 05:30:35;;;;;;;;;0.00;0.00;;;;;;;;5035545;28;62170;-82
2023/04/15 05:33:00;;;;;;;;;0.00;0.00;;;;;;;;5024194;28;64809;-82
2023/04/15 05:35:26;;;;;;;;;0.25;0.25;;;;;;;;5032460;28;61961;-82
2023/04/15 05:37:51;;;;;;;;;0.50;0.50;;;;;;;;5023294;28;61830;-81
2023/04/15 05:40:16;;;;;;;;;2.75;1.75;;;;;;;;5024345;28;62105;-82
2023/04/15 05:42:43;;;;;;;;;2.25;0.75;;;;;;;;5019981;28;63465;-82
2023/04/15 05:45:08;;;;;;;;;2.50;0.50;;;;;;;;5041341;28;61713;-82
2023/04/15 05:47:37;;;;;;;;;0.00;0.00;;;;;;;;5023798;28;62492;-82
2023/04/15 05:50:02;;;;;;;;;1.00;0.00;;;;;;;;5023997;28;61816;-82
2023/04/15 05:52:28;;;;;;;;;1.00;0.00;;;;;;;;5041037;28;61834;-82
2023/04/15 05:54:53;;;;;;;;;2.00;0.75;;;;;;;;5042032;28;61679;-86
2023/04/15 05:57:22;;;;;;;;;0.00;0.00;;;;;;;;5024576;28;61812;-86
2023/04/15 05:59:47;;;;;;;;;0.75;0.75;;;;;;;;5023778;28;62141;-85
2023/04/15 06:02:13;;;;;;;;;3.00;1.00;;;;;;;;5041972;28;61828;-87
2023/04/15 06:04:38;;;;;;;;;1.75;1.75;;;;;;;;5044564;28;61976;-86
2023/04/15 06:07:03;;;;;;;;;1.25;1.00;;;;;;;;5042503;28;62075;-86
2023/04/15 06:09:29;;;;;;;;;1.00;1.00;;;;;;;;5041789;28;62666;-86
2023/04/15 06:11:55;;;;;;;;;0.75;0.00;;;;;;;;5023547;28;64410;-86
2023/04/15 06:14:21;;;;;;;;;0.00;0.00;;;;;;;;5041433;28;61822;-87
2023/04/15 06:16:46;;;;;;;;;0.75;0.00;;;;;;;;5044524;28;61990;-84
2023/04/15 06:19:11;;;;;;;;;0.00;0.00;;;;;;;;5038542;28;61932;-88
2023/04/15 06:21:37;;;;;;;;;1.00;0.00;;;;;;;;5040680;28;63013;-88
2023/04/15 06:24:02;;;;;;;;;1.75;0.00;;;;;;;;5037811;28;61907;-89
2023/04/15 06:26:28;;;;;;;;;1.00;1.00;;;;;;;;5041203;28;62282;-85
2023/04/15 06:28:53;;;;;;;;;0.00;0.00;;;;;;;;5041968;28;61917;-86
2023/04/15 06:31:18;;;;;;;;;0.75;0.00;;;;;;;;5013108;28;63605;-86
2023/04/15 06:33:43;;;;;;;;;1.00;1.00;;;;;;;;5034072;28;61747;-86
2023/04/15 06:36:09;;;;;;;;;0.75;0.75;;;;;;;;5037818;28;62350;-83
2023/04/15 06:38:34;;;;;;;;;2.25;1.00;;;;;;;;5033140;28;61800;-83
2023/04/15 06:40:59;;;;;;;;;1.50;1.00;;;;;;;;5012579;28;65038;-82
2023/04/15 06:43:25;;;;;;;;;1.00;1.00;;;;;;;;5029880;28;61971;-82
2023/04/15 06:45:50;;;;;;;;;2.00;0.00;;;;;;;;5025386;28;61817;-85
2023/04/15 06:48:16;;;;;;;;;1.00;1.00;;;;;;;;5022448;28;62132;-85
2023/04/15 06:50:42;;;;;;;;;0.00;0.00;;;;;;;;5031531;28;61846;-83
2023/04/15 06:53:07;;;;;;;;;1.00;1.00;;;;;;;;5031029;28;61756;-82
2023/04/15 06:55:33;;;;;;;;;1.25;1.25;;;;;;;;5008278;28;61856;-82
2023/04/15 06:57:58;;;;;;;;;1.00;1.00;;;;;;;;5028757;28;61924;-82
2023/04/15 07:00:24;;;;;;;;;1.00;1.00;;;;;;;;5009763;28;64390;-81
2023/04/15 07:02:50;;;;;;;;;0.00;0.00;;;;;;;;5039490;28;62174;-86
2023/04/15 07:05:15;;;;;;;;;0.00;0.00;;;;;;;;5043222;28;61761;-81
2023/04/15 07:07:41;;;;;;;;;0.00;0.00;;;;;;;;5020358;28;61750;-81
2023/04/15 07:10:06;;;;;;;;;0.00;0.00;;;;;;;;5013123;28;64662;-81
2023/04/15 07:12:32;;;;;;;;;1.25;0.00;;;;;;;;5039270;28;62311;-84
2023/04/15 07:14:57;;;;;;;;;1.00;1.00;;;;;;;;5030332;28;61915;-81
2023/04/15 07:17:22;;;;;;;;;1.00;1.00;;;;;;;;5040739;28;61724;-84
2023/04/15 07:19:48;;;;;;;;;0.50;0.50;;;;;;;;5030662;28;61995;-84
2023/04/15 07:22:13;;;;;;;;;0.50;0.50;;;;;;;;5037715;28;61692;-86
2023/04/15 07:24:38;;;;;;;;;1.75;0.75;;;;;;;;5040832;28;61794;-87
2023/04/15 07:27:03;;;;;;;;;0.50;0.50;;;;;;;;5040009;28;62845;-86
2023/04/15 07:29:29;;;;;;;;;1.00;1.00;;;;;;;;5036978;28;61850;-86
2023/04/15 07:31:55;;;;;;;;;1.00;1.00;;;;;;;;5038228;28;62012;-83
2023/04/15 07:34:21;;;;;;;;;1.00;1.00;;;;;;;;5040531;28;61805;-85
2023/04/15 07:36:49;;;;;;;;;1.25;0.25;;;;;;;;5031206;28;61732;-84
2023/04/15 07:39:14;;;;;;;;;1.00;1.00;;;;;;;;5020207;28;61811;-83
2023/04/15 07:41:40;;;;;;;;;1.00;1.00;;;;;;;;5033375;28;62083;-82
2023/04/15 07:44:05;;;;;;;;;3.00;1.00;;;;;;;;5027016;28;61810;-85
2023/04/15 07:46:30;;;;;;;;;1.00;1.00;;;;;;;;5028407;28;62027;-83
2023/04/15 07:48:56;;;;;;;;;0.00;0.00;;;;;;;;5037417;28;62457;-84
2023/04/15 07:51:21;;;;;;;;;0.00;0.00;;;;;;;;5037487;28;61994;-85
2023/04/15 07:53:48;;;;;;;;;1.00;1.00;;;;;;;;5034667;28;61869;-86
2023/04/15 07:56:13;;;;;;;;;0.00;0.00;;;;;;;;5023252;28;62237;-87
2023/04/15 07:58:39;;;;;;;;;0.75;0.75;;;;;;;;5039646;28;63363;-85
2023/04/15 08:01:04;;;;;;;;;0.50;0.50;;;;;;;;5034041;28;61806;-84
2023/04/15 08:03:30;;;;;;;;;2.00;0.00;;;;;;;;5034058;28;61984;-82
2023/04/15 08:05:56;;;;;;;;;0.50;0.50;;;;;;;;5019950;28;61904;-83
2023/04/15 08:08:21;;;;;;;;;1.00;1.00;;;;;;;;5016234;28;61911;-84
2023/04/15 08:10:46;;;;;;;;;1.00;1.00;;;;;;;;5019739;28;62458;-84
2023/04/15 08:13:12;;;;;;;;;0.00;0.00;;;;;;;;5020656;28;61832;-83
2023/04/15 08:15:37;;;;;;;;;1.50;1.50;;;;;;;;5003902;28;62011;-84
2023/04/15 08:18:02;;;;;;;;;2.25;1.00;;;;;;;;5005488;28;63606;-83
2023/04/15 08:20:28;;;;;;;;;0.50;0.50;;;;;;;;5023631;28;61996;-84
2023/04/15 08:22:53;;;;;;;;;1.00;1.00;;;;;;;;5023777;28;61926;-83
2023/04/15 08:25:21;;;;;;;;;0.00;0.00;;;;;;;;5006469;28;61829;-84
2023/04/15 08:27:46;;;;;;;;;1.00;0.00;;;;;;;;5005666;28;65257;-84
2023/04/15 08:30:12;;;;;;;;;1.75;0.00;;;;;;;;5023968;28;62067;-83
2023/04/15 08:32:38;;;;;;;;;2.00;0.00;;;;;;;;5023743;28;61681;-83
2023/04/15 08:35:03;;;;;;;;;1.50;1.50;;;;;;;;5005960;28;61729;-84
2023/04/15 08:37:28;;;;;;;;;1.00;1.00;;;;;;;;5004877;28;64557;-83
2023/04/15 08:39:53;;;;;;;;;1.00;1.00;;;;;;;;5023919;28;62000;-83
2023/04/15 08:42:23;;;;;;;;;0.00;0.00;;;;;;;;5024287;28;61926;-84
2023/04/15 08:44:48;;;;;;;;;0.50;0.00;;;;;;;;5022998;28;61830;-83
2023/04/15 08:47:14;;;;;;;;;0.00;0.00;;;;;;;;5023305;28;61943;-83
2023/04/15 08:49:41;;;;;;;;;0.00;0.00;;;;;;;;5023266;28;62010;-83
2023/04/15 08:52:08;;;;;;;;;0.00;0.00;;;;;;;;5023699;28;61809;-84
2023/04/15 08:54:33;;;;;;;;;0.75;0.75;;;;;;;;5023477;28;61613;-83
2023/04/15 08:56:58;;;;;;;;;0.00;0.00;;;;;;;;5023246;28;61989;-83
2023/04/15 08:59:24;;;;;;;;;0.75;0.75;;;;;;;;5023356;28;61872;-83
2023/04/15 09:01:50;;;;;;;;;0.75;0.75;;;;;;;;5028279;28;61630;-83
2023/04/15 09:04:16;;;;;;;;;0.00;0.00;;;;;;;;5039996;28;62207;-83
2023/04/15 09:06:41;;;;;;;;;0.00;0.00;;;;;;;;5044153;28;65248;-83
2023/04/15 09:09:06;;;;;;;;;1.00;0.75;;;;;;;;5045213;28;61823;-83
2023/04/15 09:11:32;;;;;;;;;1.00;0.00;;;;;;;;5044838;28;62078;-83
2023/04/15 09:13:57;;;;;;;;;0.00;0.00;;;;;;;;5059723;28;61699;-82
2023/04/15 09:16:22;;;;;;;;;0.00;0.00;;;;;;;;5002656;28;63668;-83
2023/04/15 09:18:48;;;;;;;;;0.00;0.00;;;;;;;;5004781;28;61998;-82
2023/04/15 09:21:14;;;;;;;;;1.75;0.75;;;;;;;;5036572;28;61697;-83
2023/04/15 09:24:00;;;;;;;;;0.00;0.00;;;;;;;;5043239;28;62096;-83
2023/04/15 09:26:32;;;;;;;;;0.00;0.00;;;;;;;;5041405;28;61826;-83
2023/04/15 09:29:05;;;;;;;;;1.00;0.00;;;;;;;;5042894;28;61822;-83
2023/04/15 09:31:30;;;;;;;;;1.00;1.00;;;;;;;;5034730;28;62360;-83
2023/04/15 09:33:56;;;;;;;;;1.00;1.00;;;;;;;;5036657;28;61795;-82
2023/04/15 09:36:21;;;;;;;;;0.00;0.00;;;;;;;;5032690;28;61851;-83
2023/04/15 09:38:54;;;;;;;;;0.50;0.50;;;;;;;;5039467;28;61879;-83
2023/04/15 09:41:19;;;;;;;;;0.25;0.25;;;;;;;;5040745;28;62243;-83
2023/04/15 09:43:45;;;;;;;;;1.00;1.00;;;;;;;;5040915;28;61920;-84
2023/04/15 09:46:10;;;;;;;;;1.75;1.00;;;;;;;;5021601;28;63564;-85
2023/04/15 09:48:35;;;;;;;;;1.00;1.00;;;;;;;;5040810;28;61783;-87
2023/04/15 09:51:01;;;;;;;;;0.00;0.00;;;;;;;;5041270;28;61970;-82
2023/04/15 09:53:27;;;;;;;;;1.50;1.00;;;;;;;;5041995;28;61953;-84
2023/04/15 09:55:53;;;;;;;;;2.25;0.75;;;;;;;;5023594;28;63831;-83
2023/04/15 09:58:19;;;;;;;;;0.25;0.25;;;;;;;;5033821;28;61879;-84
2023/04/15 10:00:46;;;;;;;;;2.00;0.00;;;;;;;;5024936;28;62255;-84
2023/04/15 10:03:12;;;;;;;;;1.00;0.00;;;;;;;;5048240;28;61920;-85
2023/04/15 10:05:37;;;;;;;;;1.00;1.00;;;;;;;;5040377;28;64875;-86
2023/04/15 10:08:03;;;;;;;;;1.00;1.00;;;;;;;;5035754;28;62063;-83
2023/04/15 10:10:33;;;;;;;;;2.50;1.00;;;;;;;;5025308;28;61751;-85
2023/04/15 10:12:58;;;;;;;;;0.25;0.25;;;;;;;;5015971;28;62155;-85
2023/04/15 10:15:24;;;;;;;;;1.00;1.00;;;;;;;;5030491;28;62062;-84
2023/04/15 10:17:52;;;;;;;;;2.00;2.00;;;;;;;;5033865;28;61896;-82
2023/04/15 10:20:18;;;;;;;;;2.75;2.75;;;;;;;;5030112;28;61963;-85
2023/04/15 10:22:44;;;;;;;;;0.25;0.25;;;;;;;;5033338;28;61756;-86
2023/04/15 10:25:10;;;;;;;;;1.50;1.00;;;;;;;;5031513;28;61895;-84
2023/04/15 10:27:36;;;;;;;;;2.75;1.00;;;;;;;;5014816;28;61785;-86
2023/04/15 10:30:02;;;;;;;;;4.00;1.00;;;;;;;;5028860;28;61887;-87
2023/04/15 10:32:28;;;;;;;;;1.75;1.75;;;;;;;;5028582;28;61657;-85
2023/04/15 10:34:54;;;;;;;;;1.75;1.00;;;;;;;;5027508;28;62902;-86
2023/04/15 10:37:20;;;;;;;;;1.50;1.00;;;;;;;;5031866;28;62012;-85
2023/04/15 10:39:45;;;;;;;;;2.75;2.75;;;;;;;;5032196;28;61992;-85
2023/04/15 10:42:15;;;;;;;;;3.00;1.00;;;;;;;;5038644;28;61861;-86
2023/04/15 10:44:50;;;;;;;;;2.00;1.00;;;;;;;;5024544;28;62595;-82
2023/04/15 10:47:20;;;;;;;;;1.00;1.00;;;;;;;;5012966;28;62552;-87
2023/04/15 10:49:47;;;;;;;;;1.50;1.50;;;;;;;;5017426;28;62258;-88
2023/04/15 10:52:13;;;;;;;;;1.00;1.00;;;;;;;;5019993;28;61834;-88
2023/04/15 10:54:39;;;;;;;;;1.00;1.00;;;;;;;;5002480;28;63752;-85
2023/04/15 10:57:05;;;;;;;;;1.00;1.00;;;;;;;;5031896;28;61928;-86
2023/04/15 10:59:38;;;;;;;;;1.00;1.00;;;;;;;;5014961;28;61891;-88
2023/04/15 11:02:04;;;;;;;;;0.50;0.50;;;;;;;;5014520;28;61796;-85
2023/04/15 11:04:48;;;;;;;;;1.00;1.00;;;;;;;;5009719;28;63894;-86
2023/04/15 11:07:14;;;;;;;;;1.25;1.25;;;;;;;;5034720;28;61759;-88
2023/04/15 11:09:39;;;;;;;;;1.25;1.25;;;;;;;;5030886;28;61692;-89
2023/04/15 11:12:08;;;;;;;;;1.50;1.50;;;;;;;;5030680;28;61846;-83
2023/04/15 11:14:38;;;;;;;;;1.00;1.00;;;;;;;;5026785;28;62599;-84
2023/04/15 11:17:03;;;;;;;;;1.00;1.00;;;;;;;;5028018;28;62034;-83
2023/04/15 11:19:38;;;;;;;;;3.00;2.00;;;;;;;;5023277;28;62086;-83
2023/04/15 11:22:07;;;;;;;;;4.50;3.00;;;;;;;;5036784;28;61847;-84
2023/04/15 11:24:32;;;;;;;;;3.50;3.50;;;;;;;;5026766;28;61851;-85
2023/04/15 11:26:58;;;;;;;;;4.25;3.00;;;;;;;;5001242;28;61950;-86
2023/04/15 11:29:27;;;;;;;;;7.25;3.00;;;;;;;;5025562;28;61915;-84
2023/04/15 11:32:01;;;;;;;;;3.00;3.00;;;;;;;;5020306;28;62040;-84
2023/04/15 11:34:26;;;;;;;;;5.00;4.25;;;;;;;;5033851;28;62128;-84
2023/04/15 11:36:55;;;;;;;;;3.75;3.75;;;;;;;;5026782;28;61977;-83
2023/04/15 11:39:21;;;;;;;;;7.00;4.75;;;;;;;;5034113;28;61880;-82
2023/04/15 11:41:46;;;;;;;;;7.00;6.00;;;;;;;;5039643;28;61994;-83
2023/04/15 11:44:15;;;;;;;;;5.00;4.00;;;;;;;;5029007;28;61822;-81
2023/04/15 11:46:41;;;;;;;;;2.50;2.50;;;;;;;;5006015;28;61955;-83
2023/04/15 11:49:10;;;;;;;;;3.25;3.00;;;;;;;;5018883;28;62076;-84
2023/04/15 11:51:35;;;;;;;;;1.25;1.00;;;;;;;;5038880;28;61784;-83
2023/04/15 11:54:05;;;;;;;;;1.25;1.25;;;;;;;;5010644;28;64673;-84
2023/04/15 11:56:30;;;;;;;;;4.00;1.75;;;;;;;;5018377;28;61915;-84
2023/04/15 11:58:58;;;;;;;;;1.00;1.00;;;;;;;;5044133;28;61866;-84
2023/04/15 12:01:30;;;;;;;;;2.50;1.00;;;;;;;;5043657;28;61752;-84
2023/04/15 12:03:56;;;;;;;;;1.00;1.00;;;;;;;;5061726;28;62843;-82
2023/04/15 12:06:22;;;;;;;;;3.00;3.00;;;;;;;;5056514;28;63034;-83
2023/04/15 12:08:47;;;;;;;;;1.25;0.25;;;;;;;;5043354;28;61790;-82
2023/04/15 12:11:13;;;;;;;;;1.00;1.00;;;;;;;;5020976;28;62098;-82
2023/04/15 12:13:42;;;;;;;;;3.75;3.75;;;;;;;;5040724;28;62002;-83
2023/04/15 12:16:07;;;;;;;;;3.75;2.75;;;;;;;;5043300;28;61936;-83
2023/04/15 12:18:33;;;;;;;;;2.00;2.00;;;;;;;;4989029;28;61889;-84
2023/04/15 12:21:03;;;;;;;;;5.25;4.00;;;;;;;;4985677;28;62159;-83
2023/04/15 12:23:29;;;;;;;;;3.75;2.00;;;;;;;;4994311;28;65251;-83
2023/04/15 12:25:54;;;;;;;;;3.00;2.00;;;;;;;;5023104;28;61708;-83
2023/04/15 12:28:19;;;;;;;;;1.50;1.50;;;;;;;;5023849;28;61872;-84
2023/04/15 12:30:51;;;;;;;;;7.25;3.25;;;;;;;;5005246;28;61780;-83
2023/04/15 12:33:16;;;;;;;;;2.50;1.00;;;;;;;;5022189;28;62453;-82
2023/04/15 12:35:41;;;;;;;;;2.25;1.75;;;;;;;;5023273;28;61899;-85
2023/04/15 12:38:09;;;;;;;;;4.25;3.00;;;;;;;;5002591;28;61917;-83
2023/04/15 12:40:35;;;;;;;;;5.50;4.00;;;;;;;;5017269;28;61976;-84
2023/04/15 12:43:00;;;;;;;;;1.75;1.75;;;;;;;;5022956;28;61717;-84
2023/04/15 12:45:26;;;;;;;;;1.50;1.50;;;;;;;;5022020;28;61693;-84
2023/04/15 12:47:51;;;;;;;;;2.00;1.50;;;;;;;;5023549;28;61839;-83
2023/04/15 12:50:17;;;;;;;;;1.00;1.00;;;;;;;;5014093;28;61786;-83
2023/04/15 12:52:42;;;;;;;;;0.00;0.00;;;;;;;;5002845;28;61882;-83
2023/04/15 12:55:07;;;;;;;;;0.25;0.25;;;;;;;;5013516;28;61678;-84
2023/04/15 12:57:33;;;;;;;;;1.50;1.50;;;;;;;;5023698;28;61935;-83
2023/04/15 12:59:58;;;;;;;;;2.50;2.00;;;;;;;;5021012;28;61875;-83
2023/04/15 13:02:24;;;;;;;;;2.00;2.00;;;;;;;;5021259;28;61962;-83
2023/04/15 13:04:49;;;;;;;;;3.00;1.75;;;;;;;;5004810;28;61879;-84
2023/04/15 13:07:15;;;;;;;;;3.50;1.50;;;;;;;;5017496;28;62077;-82
2023/04/15 13:09:40;;;;;;;;;2.00;2.00;;;;;;;;5002783;28;62065;-83
2023/04/15 13:12:06;;;;;;;;;1.00;1.00;;;;;;;;5008714;28;61873;-83
2023/04/15 13:14:31;;;;;;;;;2.25;1.75;;;;;;;;5002610;28;61811;-82
2023/04/15 13:16:57;;;;;;;;;1.00;1.00;;;;;;;;5002896;28;61908;-83
2023/04/15 13:19:22;;;;;;;;;1.75;1.75;;;;;;;;4988504;28;62033;-83
2023/04/15 13:21:47;;;;;;;;;2.00;1.00;;;;;;;;5020698;28;62671;-85
2023/04/15 13:24:12;;;;;;;;;1.00;1.00;;;;;;;;5021141;28;61799;-83
2023/04/15 13:26:38;;;;;;;;;1.00;1.00;;;;;;;;5021829;28;61753;-84
2023/04/15 13:29:03;;;;;;;;;2.75;1.75;;;;;;;;5002316;28;62067;-83
2023/04/15 13:31:28;;;;;;;;;3.00;1.50;;;;;;;;5020937;28;61754;-83
2023/04/15 13:33:55;;;;;;;;;2.50;1.25;;;;;;;;5020153;28;62392;-83
2023/04/15 13:36:21;;;;;;;;;3.00;3.00;;;;;;;;5003375;28;62205;-82
2023/04/15 13:38:47;;;;;;;;;2.00;2.00;;;;;;;;5001803;28;62131;-82
2023/04/15 13:41:13;;;;;;;;;1.50;1.50;;;;;;;;5002301;28;63377;-83
2023/04/15 13:43:38;;;;;;;;;2.25;2.25;;;;;;;;5002908;28;62023;-83
2023/04/15 13:46:03;;;;;;;;;2.00;2.00;;;;;;;;5020698;28;61952;-83
2023/04/15 13:48:29;;;;;;;;;5.00;3.00;;;;;;;;5020353;28;61880;-83
2023/04/15 13:50:54;;;;;;;;;1.00;1.00;;;;;;;;5020408;28;62148;-83
2023/04/15 13:53:19;;;;;;;;;1.00;1.00;;;;;;;;5020953;28;61796;-83
2023/04/15 13:55:45;;;;;;;;;2.00;2.00;;;;;;;;5021368;28;62433;-83
2023/04/15 13:58:10;;;;;;;;;2.00;2.00;;;;;;;;5002252;28;62242;-82
2023/04/15 14:00:35;;;;;;;;;1.25;1.00;;;;;;;;5020410;28;61924;-82
2023/04/15 14:03:00;;;;;;;;;2.00;2.00;;;;;;;;5017865;28;61879;-82
2023/04/15 14:05:26;;;;;;;;;2.00;0.00;;;;;;;;5017912;28;62411;-82
2023/04/15 14:07:51;;;;;;;;;3.00;1.50;;;;;;;;5003108;28;61950;-81
2023/04/15 14:10:17;;;;;;;;;3.00;1.00;;;;;;;;4997729;28;63508;-82
2023/04/15 14:12:42;;;;;;;;;4.00;2.00;;;;;;;;5015524;28;61868;-82
2023/04/15 14:15:07;;;;;;;;;1.00;1.00;;;;;;;;5021421;28;61774;-82
2023/04/15 14:17:33;;;;;;;;;3.25;2.00;;;;;;;;5020836;28;61822;-81
2023/04/15 14:19:58;;;;;;;;;2.50;2.00;;;;;;;;5002750;28;64529;-82
2023/04/15 14:22:23;;;;;;;;;2.50;2.50;;;;;;;;5022006;28;61727;-82
2023/04/15 14:24:51;;;;;;;;;2.00;2.00;;;;;;;;5022125;28;62065;-82
2023/04/15 14:27:17;;;;;;;;;4.00;3.00;;;;;;;;5023508;28;62013;-82
2023/04/15 14:29:42;;;;;;;;;1.50;1.50;;;;;;;;5003449;28;64746;-82